createdAt,value
2023-01-27T00:01:31.221Z,33.10
2023-01-27T00:04:00.546Z,34.13
2023-01-27T00:06:29.787Z,37.03
2023-01-27T00:08:58.804Z,35.58
2023-01-27T00:11:45.400Z,39.42
2023-01-27T00:14:14.629Z,34.03
2023-01-27T00:16:44.969Z,36.42
2023-01-27T00:19:14.137Z,39.05
2023-01-27T00:22:00.399Z,40.53
2023-01-27T00:24:38.075Z,38.00
2023-01-27T00:27:09.741Z,39.70
2023-01-27T00:29:41.902Z,45.22
2023-01-27T00:32:30.344Z,41.17
2023-01-27T00:34:59.772Z,35.97
2023-01-27T00:37:28.713Z,41.75
2023-01-27T00:39:57.800Z,39.30
2023-01-27T00:42:27.448Z,38.42
2023-01-27T00:45:14.024Z,39.22
2023-01-27T00:47:45.408Z,33.22
2023-01-27T00:50:14.940Z,36.75
2023-01-27T00:52:43.988Z,41.70
2023-01-27T00:55:15.994Z,38.67
2023-01-27T00:57:46.096Z,39.55
2023-01-27T01:00:17.205Z,41.65
2023-01-27T01:02:48.069Z,44.20
2023-01-27T01:05:17.071Z,42.15
2023-01-27T01:07:48.433Z,40.00
2023-01-27T01:10:18.142Z,45.30
2023-01-27T01:12:48.312Z,44.13
2023-01-27T05:12:20.693Z,58.63
2023-01-27T05:15:01.544Z,62.40
2023-01-27T05:17:32.752Z,59.85
2023-01-27T05:20:01.848Z,61.75
2023-01-27T05:22:31.649Z,57.10
2023-01-27T05:25:01.161Z,63.60
2023-01-27T05:27:31.687Z,58.47
2023-01-27T05:30:03.729Z,66.70
2023-01-27T05:32:32.952Z,83.97
2023-01-27T05:35:02.702Z,57.97
2023-01-27T05:37:38.442Z,57.28
2023-01-27T05:40:08.768Z,57.20
2023-01-27T05:42:42.663Z,60.40
2023-01-27T05:47:43.094Z,55.35
2023-01-27T05:50:12.785Z,63.05
2023-01-27T05:52:44.042Z,64.95
2023-01-27T05:57:58.473Z,71.15
2023-01-27T06:00:28.232Z,62.63
2023-01-27T06:03:00.424Z,73.35
2023-01-27T06:05:30.222Z,70.78
2023-01-27T06:07:59.798Z,70.00
2023-01-27T06:10:29.523Z,75.00
2023-01-27T06:13:00.864Z,75.55
2023-01-27T06:15:38.036Z,82.53
2023-01-27T06:18:07.275Z,65.53
2023-01-27T06:20:38.881Z,69.20
2023-01-27T06:23:08.699Z,68.00
2023-01-27T06:25:40.999Z,66.22
2023-01-27T06:28:28.247Z,71.20
2023-01-27T06:31:09.016Z,76.28
2023-01-27T06:33:38.573Z,75.47
2023-01-27T06:36:14.230Z,67.93
2023-01-27T06:38:44.212Z,73.35
2023-01-27T06:41:14.667Z,75.50
2023-01-27T06:43:48.320Z,71.10
2023-01-27T06:46:17.813Z,68.75
2023-01-27T06:48:48.980Z,64.95
2023-01-27T06:51:18.207Z,68.80
2023-01-27T06:53:47.313Z,64.00
2023-01-27T06:56:17.599Z,66.88
2023-01-27T06:58:48.368Z,72.53
2023-01-27T07:01:22.099Z,66.47
2023-01-27T07:03:52.092Z,73.75
2023-01-27T07:06:21.465Z,70.75
2023-01-27T07:08:52.608Z,77.72
2023-01-27T07:11:25.594Z,80.72
2023-01-27T07:13:58.778Z,73.78
2023-01-27T07:16:28.008Z,86.20
2023-01-27T07:18:58.492Z,82.30
2023-01-27T07:21:28.905Z,71.47
2023-01-27T07:23:58.274Z,82.05
2023-01-27T07:26:27.494Z,77.47
2023-01-27T07:28:59.942Z,72.95
2023-01-27T07:31:29.286Z,85.10
2023-01-27T07:33:59.660Z,75.68
2023-01-27T07:36:28.970Z,75.75
2023-01-27T07:39:03.482Z,76.30
2023-01-27T07:41:39.869Z,79.53
2023-01-27T07:44:17.517Z,82.70
2023-01-27T07:46:52.695Z,81.35
2023-01-27T07:49:22.059Z,85.15
2023-01-27T07:51:56.303Z,87.55
2023-01-27T07:54:25.453Z,83.50
2023-01-27T07:57:00.786Z,84.80
2023-01-27T07:59:31.429Z,77.38
2023-01-27T08:02:03.570Z,76.38
2023-01-27T08:04:40.180Z,78.43
2023-01-27T08:07:20.865Z,79.07
2023-01-27T08:09:50.407Z,72.95
2023-01-27T08:12:19.524Z,75.30
2023-01-27T08:14:50.150Z,80.45
2023-01-27T08:17:30.520Z,79.60
2023-01-27T08:20:04.007Z,82.55
2023-01-27T08:22:34.720Z,81.03
2023-01-27T08:25:08.817Z,78.55
2023-01-27T08:27:40.240Z,85.88
2023-01-27T08:31:07.812Z,87.40
2023-01-27T08:33:43.263Z,74.72
2023-01-27T08:36:18.205Z,77.70
2023-01-27T08:38:49.468Z,85.38
2023-01-27T08:41:25.238Z,80.72
2023-01-27T08:44:04.134Z,82.65
2023-01-27T08:46:34.353Z,87.15
2023-01-27T08:49:05.613Z,78.70
2023-01-27T08:51:38.079Z,73.05
2023-01-27T08:54:10.929Z,74.47
2023-01-27T08:56:40.281Z,75.80
2023-01-27T08:59:10.907Z,69.63
2023-01-27T09:01:41.681Z,66.40
2023-01-27T09:04:15.296Z,80.90
2023-01-27T09:06:45.255Z,75.13
2023-01-27T09:09:18.185Z,74.57
2023-01-27T09:11:57.288Z,74.10
2023-01-27T09:14:26.939Z,71.80
2023-01-27T09:16:58.839Z,73.68
2023-01-27T09:19:35.477Z,82.85
2023-01-27T09:22:05.921Z,77.75
2023-01-27T09:24:48.564Z,77.43
2023-01-27T09:27:19.215Z,76.93
2023-01-27T09:29:51.977Z,87.40
2023-01-27T09:32:21.206Z,79.15
2023-01-27T09:34:51.673Z,79.25
2023-01-27T09:37:21.150Z,72.10
2023-01-27T09:39:54.117Z,84.88
2023-01-27T09:42:45.295Z,81.37
2023-01-27T09:45:26.471Z,76.53
2023-01-27T09:48:15.807Z,88.03
2023-01-27T09:50:49.720Z,81.63
2023-01-27T09:53:57.764Z,70.18
2023-01-27T09:56:36.095Z,79.15
2023-01-27T09:59:20.528Z,78.47
2023-01-27T10:02:02.722Z,79.18
2023-01-27T10:04:53.485Z,81.93
2023-01-27T10:07:54.224Z,83.55
2023-01-27T10:10:39.583Z,75.18
2023-01-27T10:13:19.451Z,80.55
2023-01-27T10:16:05.130Z,88.38
2023-01-27T10:18:52.298Z,83.65
2023-01-27T10:21:31.770Z,77.90
2023-01-27T10:24:13.698Z,77.90
2023-01-27T10:26:48.149Z,73.45
2023-01-27T10:29:25.426Z,79.70
2023-01-27T10:31:59.004Z,75.25
2023-01-27T10:34:37.159Z,77.03
2023-01-27T13:18:08.338Z,46.67
2023-01-27T13:20:43.677Z,53.60
2023-01-27T13:23:24.705Z,51.75
2023-01-27T13:26:04.403Z,47.20
2023-01-27T13:28:51.741Z,52.13
2023-01-27T13:31:33.304Z,50.22
2023-01-27T13:34:12.117Z,48.85
2023-01-27T13:36:47.771Z,47.58
2023-01-27T13:39:20.382Z,51.38
2023-01-27T13:41:58.350Z,48.03
2023-01-27T13:44:33.799Z,48.45
2023-01-27T13:47:07.850Z,43.97
2023-01-27T13:49:44.265Z,52.03
2023-01-27T13:52:14.017Z,42.78
2023-01-27T13:56:10.836Z,43.90
2023-01-27T13:58:52.968Z,42.28
2023-01-27T14:01:29.761Z,44.17
2023-01-27T14:04:29.961Z,46.53
2023-01-27T14:07:12.128Z,42.08
2023-01-27T14:09:53.165Z,46.47
2023-01-27T14:12:38.491Z,44.17
2023-01-27T14:15:24.544Z,44.42
2023-01-27T14:18:01.295Z,41.08
2023-01-27T14:20:56.877Z,37.65
2023-01-27T14:23:45.855Z,42.55
2023-01-27T14:26:34.020Z,41.90
2023-01-27T14:31:51.758Z,38.47
2023-01-27T14:34:42.047Z,40.55
2023-01-27T14:37:23.182Z,39.80
2023-01-27T14:40:15.490Z,46.42
2023-01-27T14:42:57.549Z,39.92
2023-01-27T14:45:31.895Z,41.50
2023-01-27T14:48:09.547Z,37.78
2023-01-27T14:50:49.897Z,42.70
2023-01-27T14:53:34.954Z,38.03
2023-01-27T14:56:13.536Z,39.17
2023-01-27T14:58:51.550Z,38.17
2023-01-27T15:01:29.342Z,40.42
2023-01-27T15:04:37.646Z,39.88
2023-01-27T15:07:18.257Z,40.03
2023-01-27T15:10:06.625Z,36.58
2023-01-27T15:12:48.825Z,37.78
2023-01-27T15:15:58.641Z,37.85
2023-01-27T15:19:14.866Z,39.30
2023-01-27T15:22:47.837Z,37.08
2023-01-27T15:25:54.307Z,36.35
2023-01-27T15:28:40.091Z,37.17
2023-01-27T15:31:26.581Z,34.40
2023-01-27T15:33:58.897Z,38.35
2023-01-27T15:37:13.813Z,37.50
2023-01-27T15:44:30.278Z,36.67
2023-01-27T15:47:12.613Z,38.78
2023-01-27T15:54:35.030Z,31.65
2023-01-27T15:57:06.805Z,38.95
2023-01-27T15:59:58.868Z,36.35
2023-01-27T16:02:33.328Z,39.30
2023-01-27T16:05:17.630Z,34.03
2023-01-27T16:07:55.284Z,37.72
2023-01-27T16:10:29.042Z,37.95
2023-01-27T16:13:26.859Z,39.20
2023-01-27T16:16:42.120Z,32.60
2023-01-27T16:19:25.773Z,38.20
2023-01-27T16:22:02.389Z,37.40
2023-01-27T16:24:41.293Z,33.50
2023-01-27T16:27:26.539Z,32.83
2023-01-27T16:30:00.908Z,34.78
2023-01-27T16:32:56.004Z,31.85
2023-01-27T16:35:33.024Z,37.25
2023-01-27T16:38:12.301Z,33.35
2023-01-27T16:41:14.392Z,34.42
2023-01-27T16:43:52.568Z,30.83
2023-01-27T16:46:35.747Z,34.10
2023-01-27T16:49:15.472Z,33.50
2023-01-27T16:51:48.168Z,35.55
2023-01-27T16:54:25.141Z,37.13
2023-01-27T16:56:54.848Z,34.35
2023-01-27T16:59:38.072Z,35.97
2023-01-27T17:02:19.233Z,34.37
2023-01-27T17:04:56.350Z,30.13
2023-01-27T17:07:27.535Z,39.08
2023-01-27T17:10:01.838Z,30.90
2023-01-27T17:12:40.535Z,33.28
2023-01-27T17:15:19.738Z,34.20
2023-01-27T17:17:59.105Z,31.77
2023-01-27T17:20:33.293Z,37.83
2023-01-27T17:23:08.174Z,34.90
2023-01-27T17:25:42.927Z,35.38
2023-01-27T17:28:19.853Z,36.10
2023-01-27T17:30:52.847Z,34.28
2023-01-27T17:33:23.048Z,38.77
2023-01-27T17:36:25.282Z,40.33
2023-01-27T17:38:58.393Z,41.17
2023-01-27T17:41:31.443Z,35.42
2023-01-27T17:44:05.313Z,39.65
2023-01-27T17:46:52.479Z,36.00
2023-01-27T17:49:22.652Z,44.20
2023-01-27T17:51:56.515Z,36.80
2023-01-27T17:54:33.801Z,39.47
2023-01-27T17:57:09.734Z,34.55
2023-01-27T17:59:45.142Z,40.67
2023-01-27T18:02:21.282Z,38.95
2023-01-27T18:04:51.731Z,35.53
2023-01-27T18:07:25.160Z,36.13
2023-01-27T18:10:00.565Z,36.47
2023-01-27T18:12:41.285Z,42.30
2023-01-27T18:15:47.085Z,36.92
2023-01-27T18:18:26.361Z,35.00
2023-01-27T18:21:06.871Z,36.25
2023-01-27T18:23:48.357Z,35.95
2023-01-27T18:26:29.180Z,42.38
2023-01-27T18:29:05.196Z,37.53
2023-01-27T18:31:45.526Z,41.33
2023-01-27T18:34:25.067Z,42.15
2023-01-27T18:36:57.444Z,41.20
2023-01-27T18:39:34.829Z,35.08
2023-01-27T18:42:13.251Z,41.97
2023-01-27T18:44:43.109Z,36.00
2023-01-27T18:47:28.885Z,41.90
2023-01-27T18:50:07.888Z,35.72
2023-01-27T18:52:47.360Z,34.97
2023-01-27T18:55:21.690Z,35.55
2023-01-27T18:58:02.767Z,33.83
2023-01-27T19:00:40.102Z,39.47
2023-01-27T19:03:21.883Z,36.75
2023-01-27T19:05:52.594Z,33.92
2023-01-27T19:08:26.266Z,43.78
2023-01-27T19:10:56.263Z,36.83
2023-01-27T19:13:44.168Z,39.17
2023-01-27T19:16:21.543Z,32.65
2023-01-27T19:18:55.502Z,33.47
2023-01-27T19:21:25.122Z,37.50
2023-01-27T19:23:57.108Z,41.20
2023-01-27T19:26:27.809Z,34.92
2023-01-27T19:29:00.522Z,34.55
2023-01-27T19:31:30.768Z,33.20
2023-01-27T19:34:03.324Z,36.05
2023-01-27T19:36:38.479Z,35.70
2023-01-27T19:39:14.827Z,39.75
2023-01-27T19:45:40.023Z,35.75
2023-01-27T19:48:18.059Z,38.55
2023-01-27T19:51:11.037Z,39.15
2023-01-27T19:54:00.188Z,33.78
2023-01-27T19:59:24.269Z,36.20
2023-01-27T20:01:57.015Z,39.92
2023-01-27T20:04:43.095Z,38.90
2023-01-27T20:07:16.064Z,38.78
2023-01-27T20:09:45.745Z,38.58
2023-01-27T20:12:18.351Z,35.50
2023-01-27T20:14:51.122Z,42.65
2023-01-27T20:17:22.131Z,39.60
2023-01-27T20:19:56.349Z,36.10
2023-01-27T20:22:26.520Z,41.10
2023-01-27T20:24:58.261Z,42.50
2023-01-27T20:27:28.999Z,37.65
2023-01-27T20:29:58.383Z,39.65
2023-01-27T20:32:31.475Z,45.67
2023-01-27T20:35:04.520Z,37.33
2023-01-27T20:37:34.235Z,39.45
2023-01-27T20:40:09.463Z,40.47
2023-01-27T20:42:42.599Z,36.20
2023-01-27T20:45:13.900Z,39.87
2023-01-27T20:47:54.216Z,38.35
2023-01-27T20:50:27.930Z,36.72
2023-01-27T22:15:53.725Z,45.80
2023-01-27T22:18:23.549Z,50.40
2023-01-27T22:20:52.909Z,44.75
2023-01-27T22:23:24.733Z,46.83
2023-01-27T22:25:55.038Z,44.15
2023-01-27T22:28:26.610Z,48.10
2023-01-27T22:31:02.626Z,45.72
2023-01-27T22:33:32.565Z,39.78
2023-01-27T22:36:02.641Z,44.30
2023-01-27T22:38:31.845Z,44.83
2023-01-27T22:41:01.030Z,43.78
2023-01-27T22:43:30.166Z,43.90
2023-01-27T22:46:03.237Z,44.50
2023-01-27T22:48:32.577Z,40.53
2023-01-27T22:51:04.818Z,41.55
2023-01-27T22:53:34.239Z,37.90
2023-01-27T22:56:05.046Z,43.15
2023-01-27T22:58:34.266Z,43.88
2023-01-27T23:01:08.587Z,43.60
2023-01-27T23:03:39.071Z,39.13
2023-01-27T23:06:09.528Z,43.42
2023-01-27T23:08:38.921Z,41.90
2023-01-27T23:11:08.518Z,42.17
2023-01-27T23:13:37.531Z,40.25
2023-01-27T23:16:10.124Z,40.13
2023-01-27T23:18:39.449Z,44.60
2023-01-27T23:21:09.750Z,44.58
2023-01-27T23:23:39.058Z,43.90
2023-01-27T23:26:09.276Z,39.75
2023-01-27T23:28:39.448Z,40.15
2023-01-27T23:31:12.225Z,39.97
2023-01-27T23:33:43.151Z,40.03
2023-01-27T23:36:13.045Z,39.80
2023-01-27T23:38:42.251Z,36.42
2023-01-27T23:41:18.331Z,33.20
2023-01-27T23:43:52.428Z,34.22
2023-01-27T23:46:23.558Z,42.03
2023-01-27T23:48:53.023Z,41.05
2023-01-27T23:51:23.186Z,38.38
2023-01-27T23:53:52.660Z,39.65
2023-01-27T23:56:22.061Z,36.47
2023-01-27T23:58:51.545Z,34.10
